createdAt,value
2022-07-26T00:04:04.414Z,19.67
2022-07-26T00:09:06.854Z,19.56
2022-07-26T00:14:09.576Z,19.51
2022-07-26T00:19:11.892Z,19.34
2022-07-26T00:24:14.213Z,19.38
2022-07-26T00:29:16.506Z,19.30
2022-07-26T00:34:18.864Z,19.18
2022-07-26T00:39:21.161Z,19.60
2022-07-26T00:44:23.469Z,19.68
2022-07-26T00:49:25.823Z,19.45
2022-07-26T00:54:28.565Z,19.61
2022-07-26T00:59:31.003Z,19.51
2022-07-26T01:04:33.590Z,19.28
2022-07-26T01:09:36.226Z,19.31
2022-07-26T01:14:38.562Z,19.24
2022-07-26T01:19:41.528Z,18.94
2022-07-26T01:24:43.887Z,19.01
2022-07-26T01:29:46.246Z,19.10
2022-07-26T01:34:48.664Z,18.96
2022-07-26T01:39:52.015Z,18.87
2022-07-26T01:44:54.274Z,19.20
2022-07-26T01:49:56.788Z,18.99
2022-07-26T01:54:59.478Z,19.20
2022-07-26T02:00:01.886Z,18.83
2022-07-26T02:05:09.720Z,18.89
2022-07-26T02:10:13.019Z,18.88
2022-07-26T02:15:17.338Z,19.00
2022-07-26T02:20:19.653Z,18.63
2022-07-26T02:25:21.956Z,18.65
2022-07-26T02:30:24.422Z,18.89
2022-07-26T02:35:26.719Z,18.85
2022-07-26T02:40:29.288Z,18.78
2022-07-26T02:45:31.616Z,18.98
2022-07-26T02:50:34.039Z,18.70
2022-07-26T02:55:36.265Z,18.96
2022-07-26T03:00:38.515Z,18.89
2022-07-26T03:05:41.016Z,18.90
2022-07-26T03:10:43.431Z,18.86
2022-07-26T03:15:45.893Z,18.60
2022-07-26T03:20:48.353Z,18.95
2022-07-26T03:25:50.699Z,19.08
2022-07-26T03:30:53.132Z,18.92
2022-07-26T03:35:55.472Z,18.84
2022-07-26T03:40:57.880Z,19.43
2022-07-26T03:46:00.155Z,19.13
2022-07-26T03:51:02.693Z,19.02
2022-07-26T03:56:23.454Z,19.45
2022-07-26T04:01:26.201Z,19.47
2022-07-26T04:06:29.255Z,19.66
2022-07-26T04:11:32.354Z,19.72
2022-07-26T04:16:36.956Z,19.83
2022-07-26T04:21:41.473Z,20.22
2022-07-26T04:26:43.766Z,20.36
2022-07-26T04:31:46.123Z,19.75
2022-07-26T04:36:48.522Z,20.31
2022-07-26T04:41:52.486Z,20.28
2022-07-26T04:46:54.778Z,20.59
2022-07-26T04:51:59.402Z,20.58
2022-07-26T04:57:01.914Z,20.34
2022-07-26T05:02:04.399Z,20.00
2022-07-26T05:07:06.732Z,20.46
2022-07-26T05:12:10.218Z,20.69
2022-07-26T05:17:12.584Z,20.61
2022-07-26T05:22:20.211Z,20.62
2022-07-26T05:27:22.633Z,21.06
2022-07-26T05:32:25.100Z,21.25
2022-07-26T05:37:27.667Z,20.97
2022-07-26T05:42:30.478Z,21.46
2022-07-26T05:47:33.012Z,21.11
2022-07-26T05:52:35.405Z,21.51
2022-07-26T05:57:41.756Z,21.43
2022-07-26T06:02:44.149Z,21.27
2022-07-26T06:07:46.497Z,21.98
2022-07-26T06:12:48.756Z,21.81
2022-07-26T06:17:51.020Z,21.80
2022-07-26T06:22:53.290Z,22.23
2022-07-26T06:27:55.795Z,22.49
2022-07-26T06:32:58.224Z,22.50
2022-07-26T06:38:00.589Z,22.57
2022-07-26T06:43:04.770Z,23.03
2022-07-26T06:48:07.542Z,23.10
2022-07-26T06:53:09.878Z,22.92
2022-07-26T06:58:12.283Z,23.15
2022-07-26T07:03:14.614Z,23.49
2022-07-26T07:08:17.241Z,23.67
2022-07-26T07:13:20.354Z,23.35
2022-07-26T07:18:22.720Z,23.65
2022-07-26T07:23:25.133Z,23.82
2022-07-26T07:28:27.726Z,23.76
2022-07-26T07:33:32.100Z,23.99
2022-07-26T07:38:39.222Z,24.11
2022-07-26T07:43:45.292Z,24.14
2022-07-26T07:48:47.859Z,23.98
2022-07-26T07:53:56.797Z,24.25
2022-07-26T07:58:59.844Z,24.29
2022-07-26T08:04:02.362Z,24.35
2022-07-26T08:09:06.379Z,24.74
2022-07-26T08:14:08.978Z,24.77
2022-07-26T08:19:12.201Z,25.06
2022-07-26T08:24:14.915Z,24.91
2022-07-26T08:29:20.792Z,25.23
2022-07-26T08:34:23.488Z,25.36
2022-07-26T08:39:25.866Z,25.17
2022-07-26T08:44:28.352Z,25.47
2022-07-26T08:49:30.686Z,25.70
2022-07-26T08:54:33.826Z,25.61
2022-07-26T08:59:36.155Z,25.27
2022-07-26T09:04:45.165Z,25.85
2022-07-26T09:10:11.199Z,26.07
2022-07-26T09:15:23.095Z,25.85
2022-07-26T09:20:28.637Z,26.31
2022-07-26T09:25:42.396Z,26.35
2022-07-26T09:30:55.478Z,26.46
2022-07-26T09:36:07.940Z,26.33
2022-07-26T09:41:20.756Z,26.81
2022-07-26T09:46:26.330Z,26.93
2022-07-26T09:51:55.208Z,27.05
2022-07-26T09:56:59.453Z,27.04
2022-07-26T10:02:01.971Z,26.74
2022-07-26T10:07:04.661Z,26.96
2022-07-26T10:12:09.257Z,27.34
2022-07-26T10:17:31.707Z,27.35
2022-07-26T10:22:50.714Z,27.08
2022-07-26T10:27:58.059Z,27.26
2022-07-26T10:33:14.008Z,27.43
2022-07-26T10:38:22.409Z,27.36
2022-07-26T10:43:41.782Z,27.21
2022-07-26T10:49:06.818Z,27.43
2022-07-26T10:54:11.511Z,26.93
2022-07-26T10:59:20.288Z,27.13
2022-07-26T11:04:35.350Z,27.51
2022-07-26T11:09:38.423Z,27.35
2022-07-26T11:14:44.967Z,27.66
2022-07-26T11:19:50.618Z,27.85
2022-07-26T11:24:52.970Z,27.68
2022-07-26T11:29:55.407Z,27.65
2022-07-26T11:35:05.002Z,27.85
2022-07-26T11:40:07.987Z,27.74
2022-07-26T11:45:13.902Z,27.82
2022-07-26T11:50:30.880Z,27.91
2022-07-26T11:55:33.295Z,27.68
2022-07-26T12:00:35.683Z,27.99
2022-07-26T12:05:38.224Z,27.33
2022-07-26T12:10:40.589Z,27.85
2022-07-26T12:15:51.381Z,27.43
2022-07-26T12:21:05.664Z,27.74
2022-07-26T12:26:26.580Z,26.48
2022-07-26T12:31:31.320Z,27.48
2022-07-26T12:36:34.297Z,27.37
2022-07-26T12:41:40.668Z,25.71
2022-07-26T12:46:45.282Z,25.42
2022-07-26T12:51:47.822Z,26.45
2022-07-26T12:56:50.325Z,25.55
2022-07-26T13:01:53.244Z,27.10
2022-07-26T13:06:55.625Z,24.90
2022-07-26T13:11:57.937Z,27.14
2022-07-26T13:17:01.086Z,26.80
2022-07-26T13:22:05.567Z,27.46
2022-07-26T13:27:10.500Z,25.96
2022-07-26T13:32:13.388Z,27.44
2022-07-26T13:37:15.811Z,27.44
2022-07-26T13:42:19.670Z,27.60
2022-07-26T13:47:22.081Z,27.76
2022-07-26T13:52:24.608Z,27.81
2022-07-26T13:57:47.030Z,28.07
2022-07-26T14:02:49.568Z,27.88
2022-07-26T14:07:52.196Z,27.46
2022-07-26T14:12:55.097Z,27.91
2022-07-26T14:17:57.467Z,27.56
2022-07-26T14:23:01.879Z,27.47
2022-07-26T14:38:50.387Z,27.17
2022-07-26T14:43:55.656Z,26.95
2022-07-26T14:48:58.337Z,26.54
2022-07-26T14:54:00.802Z,26.38
2022-07-26T14:59:03.231Z,24.82
2022-07-26T15:04:05.683Z,25.08
2022-07-26T15:09:08.047Z,26.08
2022-07-26T15:14:11.038Z,23.04
2022-07-26T15:19:13.761Z,25.70
2022-07-26T15:24:16.272Z,23.81
2022-07-26T15:29:18.729Z,23.86
2022-07-26T15:34:21.433Z,23.70
2022-07-26T15:39:23.938Z,25.05
2022-07-26T15:44:26.475Z,25.52
2022-07-26T15:49:28.923Z,25.56
2022-07-26T15:54:31.491Z,24.36
2022-07-26T15:59:33.833Z,24.41
2022-07-26T16:04:36.255Z,26.12
2022-07-26T16:09:38.582Z,25.25
2022-07-26T16:14:41.184Z,24.05
2022-07-26T16:19:43.658Z,25.34
2022-07-26T16:24:46.140Z,25.92
2022-07-26T16:29:52.101Z,23.71
2022-07-26T16:34:54.983Z,25.29
2022-07-26T16:39:57.408Z,25.26
2022-07-26T16:44:59.788Z,25.56
2022-07-26T16:50:02.718Z,25.43
2022-07-26T16:55:11.032Z,25.26
2022-07-26T17:00:16.287Z,25.12
2022-07-26T17:05:19.891Z,25.45
2022-07-26T17:10:22.457Z,24.37
2022-07-26T17:15:24.871Z,25.73
2022-07-26T17:20:27.442Z,23.99
2022-07-26T17:25:29.972Z,25.59
2022-07-26T17:30:32.666Z,25.48
2022-07-26T17:35:35.141Z,25.41
2022-07-26T17:40:38.569Z,25.34
2022-07-26T17:45:41.575Z,23.77
2022-07-26T17:50:44.143Z,23.41
2022-07-26T17:55:46.564Z,23.72
2022-07-26T18:00:49.388Z,24.12
2022-07-26T18:05:52.324Z,25.04
2022-07-26T18:10:55.928Z,24.94
2022-07-26T18:16:01.787Z,24.90
2022-07-26T18:21:06.867Z,25.08
2022-07-26T18:26:09.510Z,24.41
2022-07-26T18:31:12.014Z,23.70
2022-07-26T18:36:14.396Z,24.19
2022-07-26T18:41:17.293Z,24.25
2022-07-26T18:46:19.752Z,24.12
2022-07-26T18:51:22.450Z,24.13
2022-07-26T18:56:29.368Z,23.50
2022-07-26T19:01:32.341Z,23.71
2022-07-26T19:06:38.614Z,23.89
2022-07-26T19:11:41.096Z,24.02
2022-07-26T19:16:48.941Z,23.30
2022-07-26T19:21:54.261Z,22.97
2022-07-26T19:26:56.761Z,21.72
2022-07-26T19:32:00.776Z,23.57
2022-07-26T19:37:03.709Z,21.65
2022-07-26T19:42:06.169Z,21.95
2022-07-26T19:47:08.797Z,23.52
2022-07-26T19:52:11.800Z,22.35
2022-07-26T19:57:14.547Z,22.61
2022-07-26T20:02:18.279Z,23.34
2022-07-26T20:07:20.744Z,22.40
2022-07-26T20:12:23.760Z,23.21
2022-07-26T20:17:26.519Z,23.06
2022-07-26T20:22:29.155Z,23.11
2022-07-26T20:27:31.641Z,22.46
2022-07-26T20:32:34.123Z,22.95
2022-07-26T20:37:40.081Z,21.76
2022-07-26T20:42:44.231Z,20.17
2022-07-26T20:47:53.358Z,20.93
2022-07-26T20:52:55.820Z,22.68
2022-07-26T20:57:58.703Z,22.00
2022-07-26T21:03:01.146Z,22.45
2022-07-26T21:08:03.626Z,22.39
2022-07-26T21:13:06.128Z,22.08
2022-07-26T21:18:09.326Z,22.26
2022-07-26T21:23:17.782Z,21.64
2022-07-26T21:28:21.716Z,22.27
2022-07-26T21:33:26.936Z,21.25
2022-07-26T21:38:34.628Z,20.36
2022-07-26T21:43:37.052Z,21.26
2022-07-26T21:48:39.629Z,21.75
2022-07-26T21:53:43.770Z,21.95
2022-07-26T21:58:46.889Z,19.54
2022-07-26T22:03:49.469Z,19.84
2022-07-26T22:08:51.866Z,21.82
2022-07-26T22:13:54.274Z,19.75
2022-07-26T22:18:56.632Z,21.80
2022-07-26T22:23:58.983Z,21.61
2022-07-26T22:29:01.358Z,19.40
2022-07-26T22:34:03.816Z,20.01
2022-07-26T22:39:06.167Z,19.89
2022-07-26T22:44:11.527Z,19.89
2022-07-26T22:49:14.222Z,20.97
2022-07-26T22:54:20.562Z,18.76
2022-07-26T22:59:25.551Z,19.48
2022-07-26T23:04:27.952Z,19.16
2022-07-26T23:09:30.375Z,20.46
2022-07-26T23:14:32.837Z,21.11
2022-07-26T23:19:35.109Z,21.10
2022-07-26T23:24:37.439Z,20.95
2022-07-26T23:29:42.892Z,18.85
2022-07-26T23:34:45.324Z,20.32
2022-07-26T23:39:47.648Z,20.91
2022-07-26T23:44:49.951Z,20.35
2022-07-26T23:49:52.853Z,19.35
2022-07-26T23:54:55.282Z,20.28
2022-07-26T23:59:57.721Z,20.62
